Time;durP1;ratioP1;P1;durP2;ratioP2;P2;SDS_P1;SDS_P2;PMS_P1;PMS_P2;Temp;Humidity;BMP_temperature;BMP_pressure;BME280_temperature;BME280_humidity;BME280_pressure;Samples;Min_cycle;Max_cycle;Signal;HPM_P1;HPM_P2
2022/10/11 00:00:25;;;;;;;13.10;4.93;;;;;;;;;;4403910;32;20052;-68
2022/10/11 00:02:50;;;;;;;;;;;;;;;;;;4403755;32;20043;-69
2022/10/11 00:05:15;;;;;;;24.05;5.75;;;;;;;;;;4404272;32;19942;-69
2022/10/11 00:07:40;;;;;;;26.33;5.95;;;;;;;;;;4405844;32;20054;-69
2022/10/11 00:10:05;;;;;;;;;;;;;;;;;;4404555;32;20031;-69
2022/10/11 00:12:31;;;;;;;15.65;4.82;;;;;;;;;;4404539;32;19971;-69
2022/10/11 00:14:56;;;;;;;24.48;5.12;;;;;;;;;;4403964;32;20038;-69
2022/10/11 00:17:21;;;;;;;;;;;;;;;;;;4405971;32;20084;-69
2022/10/11 00:19:46;;;;;;;12.70;4.93;;;;;;;;;;4404220;32;19967;-69
2022/10/11 00:22:12;;;;;;;15.82;4.97;;;;;;;;;;4403702;32;20027;-69
2022/10/11 00:24:37;;;;;;;;;;;;;;;;;;4402808;32;20050;-69
2022/10/11 00:27:02;;;;;;;24.33;5.80;;;;;;;;;;4405318;32;20079;-70
2022/10/11 00:29:27;;;;;;;19.80;4.75;;;;;;;;;;4405761;32;20027;-69
2022/10/11 00:31:52;;;;;;;20.50;4.97;;;;;;;;;;4403722;32;20042;-68
2022/10/11 00:34:17;;;;;;;;;;;;;;;;;;4404867;32;20101;-68
2022/10/11 00:36:43;;;;;;;19.42;4.65;;;;;;;;;;4405095;32;19958;-69
2022/10/11 00:39:08;;;;;;;17.75;4.60;;;;;;;;;;4408605;27;20103;-75
2022/10/11 00:41:40;;;;;;;18.40;4.68;;;;;;;;;;4381297;32;20045;-74
2022/10/11 00:44:17;;;;;;;22.35;4.90;;;;;;;;;;4387052;32;20031;-74
2022/10/11 00:46:56;;;;;;;20.40;5.18;;;;;;;;;;4389609;32;20030;-75
2022/10/11 00:49:35;;;;;;;13.75;5.03;;;;;;;;;;4390427;32;20034;-74
2022/10/11 00:52:05;;;;;;;13.43;4.43;;;;;;;;;;4389845;32;20038;-74
2022/10/11 00:54:32;;;;;;;14.48;4.18;;;;;;;;;;4388666;32;20034;-74
2022/10/11 00:57:01;;;;;;;20.10;4.60;;;;;;;;;;4384351;32;20089;-74
2022/10/11 00:59:29;;;;;;;20.25;5.75;;;;;;;;;;4376795;32;20038;-74
2022/10/11 01:01:55;;;;;;;16.35;4.22;;;;;;;;;;4377513;32;20034;-74
2022/10/11 01:04:20;;;;;;;;;;;;;;;;;;4391177;32;20057;-74
2022/10/11 01:06:47;;;;;;;20.70;4.03;;;;;;;;;;4392743;32;19941;-74
2022/10/11 01:09:15;;;;;;;15.32;4.45;;;;;;;;;;4392691;32;20023;-75
2022/10/11 01:11:42;;;;;;;22.40;4.60;;;;;;;;;;4392963;32;20088;-74
2022/10/11 01:14:22;;;;;;;22.08;7.07;;;;;;;;;;4388406;32;20094;-75
2022/10/11 01:16:56;;;;;;;16.52;4.65;;;;;;;;;;4389691;32;20033;-74
2022/10/11 01:19:41;;;;;;;20.45;4.45;;;;;;;;;;4377798;32;20081;-74
2022/10/11 01:22:25;;;;;;;16.98;4.50;;;;;;;;;;4377368;32;20030;-75
2022/10/11 01:25:05;;;;;;;16.45;4.62;;;;;;;;;;4392076;32;20079;-74
2022/10/11 01:27:47;;;;;;;13.23;3.85;;;;;;;;;;4392683;32;20129;-74
2022/10/11 01:30:26;;;;;;;16.73;4.32;;;;;;;;;;4387121;32;20027;-74
2022/10/11 01:33:10;;;;;;;19.27;4.35;;;;;;;;;;4385425;32;20076;-74
2022/10/11 01:35:45;;;;;;;21.37;5.25;;;;;;;;;;4391669;32;20049;-75
2022/10/11 01:38:22;;;;;;;18.17;3.67;;;;;;;;;;4392398;32;20050;-74
2022/10/11 01:40:56;;;;;;;24.52;4.30;;;;;;;;;;4392117;32;20447;-74
2022/10/11 01:43:22;;;;;;;13.20;3.75;;;;;;;;;;4385669;32;20061;-74
2022/10/11 01:45:51;;;;;;;19.67;4.18;;;;;;;;;;4377359;32;20093;-74
2022/10/11 01:48:17;;;;;;;18.00;4.50;;;;;;;;;;4385134;32;20415;-74
2022/10/11 01:50:42;;;;;;;;;;;;;;;;;;4376879;32;20072;-74
2022/10/11 01:53:23;;;;;;;19.48;4.25;;;;;;;;;;4383187;32;19948;-74
2022/10/11 01:56:07;;;;;;;16.75;3.60;;;;;;;;;;4392707;32;20131;-74
2022/10/11 01:58:39;;;;;;;15.50;4.18;;;;;;;;;;4391479;32;20034;-75
2022/10/11 02:01:10;;;;;;;13.23;4.12;;;;;;;;;;4382783;32;20413;-74
2022/10/11 02:03:36;;;;;;;22.73;5.47;;;;;;;;;;4390871;32;20091;-74
2022/10/11 02:06:01;;;;;;;;;;;;;;;;;;4379958;32;20101;-74
2022/10/11 02:08:48;;;;;;;14.27;3.72;;;;;;;;;;4392655;32;19930;-74
2022/10/11 02:11:20;;;;;;;14.63;3.62;;;;;;;;;;4391728;32;20054;-74
2022/10/11 02:13:58;;;;;;;17.02;3.80;;;;;;;;;;4391937;32;20098;-74
2022/10/11 02:16:30;;;;;;;15.32;3.67;;;;;;;;;;4392370;32;20080;-74
2022/10/11 02:19:00;;;;;;;15.95;4.03;;;;;;;;;;4391274;32;20374;-74
2022/10/11 02:21:26;;;;;;;20.70;4.55;;;;;;;;;;4386663;32;20042;-74
2022/10/11 02:23:51;;;;;;;;;;;;;;;;;;4382884;32;20106;-74
2022/10/11 02:26:18;;;;;;;14.75;4.15;;;;;;;;;;4385809;32;19945;-74
2022/10/11 02:28:50;;;;;;;10.55;4.10;;;;;;;;;;4377969;32;20049;-74
2022/10/11 02:31:16;;;;;;;19.12;3.83;;;;;;;;;;4376670;32;20027;-74
2022/10/11 02:33:41;;;;;;;;;;;;;;;;;;4376586;32;20034;-74
2022/10/11 02:36:10;;;;;;;16.37;4.05;;;;;;;;;;4377418;32;19948;-74
2022/10/11 02:38:55;;;;;;;15.23;4.10;;;;;;;;;;4384070;32;20102;-74
2022/10/11 02:41:24;;;;;;;18.33;3.95;;;;;;;;;;4378227;32;20108;-74
2022/10/11 02:43:59;;;;;;;15.38;4.35;;;;;;;;;;4376723;32;20026;-74
2022/10/11 02:46:44;;;;;;;12.30;3.72;;;;;;;;;;4376690;32;20061;-74
2022/10/11 02:49:13;;;;;;;12.80;4.03;;;;;;;;;;4376825;32;20023;-73
2022/10/11 02:54:30;;;;;;;10.02;3.62;;;;;;;;;;4377339;32;20467;-74
2022/10/11 03:05:57;;;;;;;17.48;3.50;;;;;;;;;;4376712;32;20042;-75
2022/10/11 03:08:23;;;;;;;11.82;3.45;;;;;;;;;;4375671;32;20034;-75
2022/10/11 03:10:48;;;;;;;;;;;;;;;;;;4378949;32;20069;-75
2022/10/11 03:13:13;;;;;;;13.32;3.92;;;;;;;;;;4390520;32;20205;-74
2022/10/11 03:15:38;;;;;;;;;;;;;;;;;;4376740;32;20053;-75
2022/10/11 03:18:04;;;;;;;8.55;3.42;;;;;;;;;;4374640;32;20253;-74
2022/10/11 03:20:29;;;;;;;;;;;;;;;;;;4376955;32;20162;-75
2022/10/11 03:22:55;;;;;;;11.52;3.55;;;;;;;;;;4390040;32;20313;-74
2022/10/11 03:25:23;;;;;;;;;;;;;;;;;;4390708;32;20051;-74
2022/10/11 03:27:51;;;;;;;13.35;3.85;;;;;;;;;;4391484;32;19956;-73
2022/10/11 03:30:19;;;;;;;9.65;3.90;;;;;;;;;;4390041;32;20042;-73
2022/10/11 03:32:47;;;;;;;14.30;4.12;;;;;;;;;;4390137;32;20062;-73
2022/10/11 03:35:13;;;;;;;13.52;3.90;;;;;;;;;;4388496;32;20364;-74
2022/10/11 03:37:38;;;;;;;;;;;;;;;;;;4389976;32;20094;-74
2022/10/11 03:40:05;;;;;;;14.87;3.75;;;;;;;;;;4390014;32;19968;-73
2022/10/11 03:42:45;;;;;;;8.43;3.65;;;;;;;;;;4391271;32;20096;-73
2022/10/11 03:45:10;;;;;;;11.88;3.95;;;;;;;;;;4386499;32;20070;-75
2022/10/11 03:47:36;;;;;;;;;;;;;;;;;;4379572;32;20098;-73
2022/10/11 03:50:01;;;;;;;10.25;3.30;;;;;;;;;;4390278;32;19960;-74
2022/10/11 03:52:26;;;;;;;;;;;;;;;;;;4389735;32;20027;-73
2022/10/11 03:54:51;;;;;;;21.50;5.35;;;;;;;;;;4389430;32;19949;-72
2022/10/11 03:57:17;;;;;;;;;;;;;;;;;;4389482;32;20027;-73
2022/10/11 03:59:42;;;;;;;9.40;4.68;;;;;;;;;;4381391;32;19945;-73
2022/10/11 04:02:07;;;;;;;;;;;;;;;;;;4376938;32;20046;-74
2022/10/11 04:04:32;;;;;;;20.62;4.32;;;;;;;;;;4387271;32;19950;-73
2022/10/11 04:06:57;;;;;;;;;;;;;;;;;;4390734;32;20126;-75
2022/10/11 04:09:23;;;;;;;19.90;3.83;;;;;;;;;;4391231;32;19952;-73
2022/10/11 04:11:48;;;;;;;;;;;;;;;;;;4390435;32;20149;-73
2022/10/11 04:14:19;;;;;;;20.02;4.93;;;;;;;;;;4389136;32;19933;-73
2022/10/11 04:16:45;;;;;;;16.52;4.55;;;;;;;;;;4373896;32;20116;-73
2022/10/11 04:19:10;;;;;;;;;;;;;;;;;;4375704;32;20433;-73
2022/10/11 04:21:35;;;;;;;16.40;5.03;;;;;;;;;;4375440;32;20338;-73
2022/10/11 04:24:00;;;;;;;;;;;;;;;;;;4405179;32;20122;-73
2022/10/11 04:26:25;;;;;;;12.05;4.93;;;;;;;;;;4391095;32;20020;-73
2022/10/11 04:28:51;;;;;;;;;;;;;;;;;;4389844;32;20035;-72
2022/10/11 04:31:16;;;;;;;18.85;6.20;;;;;;;;;;4390166;32;19948;-74
2022/10/11 04:33:41;;;;;;;;;;;;;;;;;;4390315;32;20417;-73
2022/10/11 04:36:06;;;;;;;10.43;5.15;;;;;;;;;;4392299;32;19938;-73
2022/10/11 04:38:32;;;;;;;10.80;4.50;;;;;;;;;;4389805;32;20403;-72
2022/10/11 04:40:57;;;;;;;;;;;;;;;;;;4379869;32;20072;-73
2022/10/11 04:43:22;;;;;;;9.55;4.20;;;;;;;;;;4377273;32;19965;-74
2022/10/11 04:45:47;;;;;;;;;;;;;;;;;;4388975;32;20123;-74
2022/10/11 04:48:15;;;;;;;14.60;4.30;;;;;;;;;;4392682;32;19997;-74
2022/10/11 04:50:41;;;;;;;18.95;4.93;;;;;;;;;;4393062;32;20126;-74
2022/10/11 04:53:06;;;;;;;;;;;;;;;;;;4383730;32;20066;-74
2022/10/11 04:55:31;;;;;;;15.38;3.97;;;;;;;;;;4385919;32;19933;-73
2022/10/11 04:57:56;;;;;;;;;;;;;;;;;;4379851;32;20113;-73
2022/10/11 05:00:22;;;;;;;12.63;3.90;;;;;;;;;;4377450;32;19938;-73
2022/10/11 05:02:47;;;;;;;;;;;;;;;;;;4378093;32;20588;-73
2022/10/11 05:05:16;;;;;;;11.90;4.32;;;;;;;;;;4383164;32;20307;-74
2022/10/11 05:07:41;;;;;;;14.80;4.45;;;;;;;;;;4390047;32;20026;-73
2022/10/11 05:10:06;;;;;;;;;;;;;;;;;;4392023;32;20053;-72
2022/10/11 05:12:32;;;;;;;18.55;4.40;;;;;;;;;;4388972;32;19971;-74
2022/10/11 05:14:58;;;;;;;;;;;;;;;;;;4380346;32;20080;-74
2022/10/11 05:17:23;;;;;;;15.95;4.12;;;;;;;;;;4377489;32;20347;-72
2022/10/11 05:19:48;;;;;;;;;;;;;;;;;;4378500;32;20030;-75
2022/10/11 05:22:14;;;;;;;17.78;4.44;;;;;;;;;;4380993;32;19949;-75
2022/10/11 05:24:39;;;;;;;;;;;;;;;;;;4392138;32;20133;-73
2022/10/11 05:27:04;;;;;;;15.07;3.97;;;;;;;;;;4392232;32;19942;-74
2022/10/11 05:29:30;;;;;;;;;;;;;;;;;;4383034;32;20058;-74
2022/10/11 05:31:55;;;;;;;17.35;5.00;;;;;;;;;;4378007;32;19935;-74
2022/10/11 05:34:23;;;;;;;;;;;;;;;;;;4376013;32;20449;-74
2022/10/11 05:36:48;;;;;;;;;;;;;;;;;;4378472;32;19980;-72
2022/10/11 05:39:13;;;;;;;16.35;5.25;;;;;;;;;;4377187;32;19938;-75
2022/10/11 05:41:39;;;;;;;11.18;4.00;;;;;;;;;;4378494;32;20026;-74
2022/10/11 05:44:04;;;;;;;;;;;;;;;;;;4383633;32;20381;-74
2022/10/11 05:46:29;;;;;;;11.15;4.00;;;;;;;;;;4379114;32;19968;-73
2022/10/11 05:48:54;;;;;;;;;;;;;;;;;;4389936;32;20131;-75
2022/10/11 05:51:19;;;;;;;19.83;4.65;;;;;;;;;;4384535;32;20371;-75
2022/10/11 05:53:45;;;;;;;20.85;5.85;;;;;;;;;;4377097;32;20043;-74
2022/10/11 05:56:10;;;;;;;;;;;;;;;;;;4378037;32;20055;-75
2022/10/11 05:58:35;;;;;;;43.10;7.30;;;;;;;;;;4376915;32;19949;-75
2022/10/11 06:01:00;;;;;;;;;;;;;;;;;;4381356;32;20182;-74
2022/10/11 06:03:26;;;;;;;12.60;4.07;;;;;;;;;;4392141;32;20309;-73
2022/10/11 06:05:52;;;;;;;14.48;4.07;;;;;;;;;;4395158;32;20052;-73
2022/10/11 06:08:17;;;;;;;;;;;;;;;;;;4388911;32;20023;-73
2022/10/11 06:10:43;;;;;;;19.08;5.37;;;;;;;;;;4380017;32;19939;-73
2022/10/11 06:13:09;;;;;;;18.85;4.40;;;;;;;;;;4380122;32;20116;-73
2022/10/11 06:15:34;;;;;;;;;;;;;;;;;;4377517;32;20023;-72
2022/10/11 06:18:00;;;;;;;15.15;4.65;;;;;;;;;;4387560;32;20021;-73
2022/10/11 06:20:28;;;;;;;;;;;;;;;;;;4375744;32;20093;-73
2022/10/11 06:22:53;;;;;;;17.35;5.28;;;;;;;;;;4385604;32;20248;-73
2022/10/11 06:25:18;;;;;;;;;;;;;;;;;;4391622;32;20042;-72
2022/10/11 06:27:44;;;;;;;19.33;4.75;;;;;;;;;;4390936;32;19946;-73
2022/10/11 06:30:09;;;;;;;;;;;;;;;;;;4391597;32;20115;-70
2022/10/11 06:32:34;;;;;;;10.92;3.48;;;;;;;;;;4390987;32;19937;-74
2022/10/11 06:34:59;;;;;;;;;;;;;;;;;;4393777;32;20396;-73
2022/10/11 06:37:24;;;;;;;9.93;3.47;;;;;;;;;;4390499;32;19946;-73
2022/10/11 06:39:49;;;;;;;;;;;;;;;;;;4383418;32;20170;-73
2022/10/11 06:42:15;;;;;;;15.43;5.30;;;;;;;;;;4376669;32;19994;-73
2022/10/11 06:44:40;;;;;;;;;;;;;;;;;;4384353;32;20119;-72
2022/10/11 06:47:05;;;;;;;20.55;3.85;;;;;;;;;;4379981;32;19992;-73
2022/10/11 06:49:30;;;;;;;;;;;;;;;;;;4389669;32;20533;-74
2022/10/11 06:51:56;;;;;;;15.00;4.93;;;;;;;;;;4386786;32;20004;-72
2022/10/11 06:54:21;;;;;;;15.20;4.22;;;;;;;;;;4373509;32;20110;-73
2022/10/11 06:56:55;;;;;;;26.12;5.18;;;;;;;;;;4374550;32;20039;-73
2022/10/11 06:59:20;;;;;;;13.90;3.75;;;;;;;;;;4375374;32;20067;-73
2022/10/11 07:01:45;;;;;;;;;;;;;;;;;;4375914;32;20057;-73
2022/10/11 07:04:11;;;;;;;11.25;3.97;;;;;;;;;;4375846;32;19938;-73
2022/10/11 07:06:36;;;;;;;;;;;;;;;;;;4376441;32;20084;-73
2022/10/11 07:09:01;;;;;;;15.35;5.15;;;;;;;;;;4375499;32;19945;-74
2022/10/11 07:11:27;;;;;;;;;;;;;;;;;;4376452;32;20420;-72
2022/10/11 07:13:53;;;;;;;17.48;4.00;;;;;;;;;;4375941;32;20260;-74
2022/10/11 07:16:19;;;;;;;19.15;3.87;;;;;;;;;;4376268;32;20019;-72
2022/10/11 07:18:44;;;;;;;;;;;;;;;;;;4376448;32;20031;-74
2022/10/11 07:21:10;;;;;;;13.77;4.57;;;;;;;;;;4376427;32;19939;-73
2022/10/11 07:23:36;;;;;;;17.87;5.00;;;;;;;;;;4390376;32;20046;-70
2022/10/11 07:26:01;;;;;;;;;;;;;;;;;;4390567;32;20045;-73
2022/10/11 07:28:29;;;;;;;26.08;4.47;;;;;;;;;;4391129;32;20307;-73
2022/10/11 07:30:54;;;;;;;11.25;4.43;;;;;;;;;;4390690;32;20137;-73
2022/10/11 07:33:19;;;;;;;;;;;;;;;;;;4390594;32;20076;-73
2022/10/11 07:35:45;;;;;;;20.70;6.85;;;;;;;;;;4389678;32;19933;-72
2022/10/11 07:38:11;;;;;;;17.35;6.50;;;;;;;;;;4390366;32;20167;-74
2022/10/11 07:40:41;;;;;;;13.77;4.37;;;;;;;;;;4388664;32;20039;-71
2022/10/11 07:43:07;;;;;;;12.32;4.57;;;;;;;;;;4389131;32;20026;-74
2022/10/11 07:45:32;;;;;;;;;;;;;;;;;;4389980;32;20016;-74
2022/10/11 07:47:57;;;;;;;14.98;4.70;;;;;;;;;;4390404;32;19989;-74
2022/10/11 07:50:28;;;;;;;12.05;4.62;;;;;;;;;;4390401;32;20073;-74
2022/10/11 07:52:53;;;;;;;16.45;4.93;;;;;;;;;;4389621;32;20057;-73
2022/10/11 07:55:19;;;;;;;;;;;;;;;;;;4390605;32;20372;-73
2022/10/11 07:57:44;;;;;;;19.20;4.65;;;;;;;;;;4390525;32;19981;-74
2022/10/11 08:00:09;;;;;;;;;;;;;;;;;;4390883;32;20234;-72
2022/10/11 08:02:34;;;;;;;15.70;4.18;;;;;;;;;;4391489;32;19952;-73
2022/10/11 08:05:00;;;;;;;;;;;;;;;;;;4390369;32;20150;-73
2022/10/11 08:07:25;;;;;;;11.82;4.03;;;;;;;;;;4390564;32;19989;-74
2022/10/11 08:09:51;;;;;;;;;;;;;;;;;;4390790;32;20298;-74
2022/10/11 08:12:17;;;;;;;15.52;4.25;;;;;;;;;;4389129;32;19963;-73
2022/10/11 08:14:42;;;;;;;;;;;;;;;;;;4390511;32;20027;-73
2022/10/11 08:17:07;;;;;;;14.87;4.20;;;;;;;;;;4389765;32;19993;-73
2022/10/11 08:19:32;;;;;;;;;;;;;;;;;;4390079;32;20127;-73
2022/10/11 08:21:58;;;;;;;15.07;3.90;;;;;;;;;;4384820;32;19939;-73
2022/10/11 08:24:24;;;;;;;;;;;;;;;;;;4374140;32;20119;-73
2022/10/11 08:26:49;;;;;;;19.52;4.62;;;;;;;;;;4375130;32;19993;-73
2022/10/11 08:29:24;;;;;;;83.05;12.40;;;;;;;;;;4374736;32;20023;-73
2022/10/11 08:31:49;;;;;;;27.90;5.50;;;;;;;;;;4375159;32;20031;-74
2022/10/11 08:34:14;;;;;;;;;;;;;;;;;;4375252;32;20151;-73
2022/10/11 08:36:39;;;;;;;13.02;3.62;;;;;;;;;;4375136;32;19965;-73
2022/10/11 08:39:05;;;;;;;;;;;;;;;;;;4374808;32;20472;-74
2022/10/11 08:41:44;;;;;;;16.48;4.15;;;;;;;;;;4375382;32;19977;-73
2022/10/11 08:44:29;;;;;;;13.25;3.60;;;;;;;;;;4375396;32;20049;-75
2022/10/11 08:47:08;;;;;;;19.25;5.35;;;;;;;;;;4374899;32;20042;-73
2022/10/11 08:49:33;;;;;;;18.45;4.45;;;;;;;;;;4375379;32;20394;-73
2022/10/11 08:52:02;;;;;;;18.40;4.20;;;;;;;;;;4380853;32;20018;-74
2022/10/11 08:54:37;;;;;;;18.33;5.45;;;;;;;;;;4390260;32;20357;-71
2022/10/11 08:57:04;;;;;;;16.33;4.90;;;;;;;;;;4390084;32;20469;-75
2022/10/11 08:59:49;;;;;;;17.62;4.75;;;;;;;;;;4389771;32;20030;-74
2022/10/11 09:02:14;;;;;;;16.90;4.20;;;;;;;;;;4390076;32;20062;-74
2022/10/11 09:04:39;;;;;;;;;;;;;;;;;;4390761;32;20435;-73
2022/10/11 09:07:23;;;;;;;14.65;3.40;;;;;;;;;;4390338;32;19944;-73
2022/10/11 09:10:10;;;;;;;16.55;4.93;;;;;;;;;;4390173;32;20026;-73
2022/10/11 09:12:49;;;;;;;8.23;3.25;;;;;;;;;;4387914;32;20370;-73
2022/10/11 09:15:41;;;;;;;20.98;4.62;;;;;;;;;;4390405;32;20026;-73
2022/10/11 09:18:12;;;;;;;20.42;4.70;;;;;;;;;;4388918;32;20035;-73
2022/10/11 09:20:44;;;;;;;17.30;4.12;;;;;;;;;;4389952;32;20023;-73
2022/10/11 09:23:28;;;;;;;14.68;3.45;;;;;;;;;;4378667;32;20024;-73
2022/10/11 09:25:56;;;;;;;20.02;4.15;;;;;;;;;;4377024;32;20049;-73
2022/10/11 09:28:41;;;;;;;11.75;3.60;;;;;;;;;;4377619;32;20065;-73
2022/10/11 09:31:08;;;;;;;13.30;3.80;;;;;;;;;;4377249;32;20049;-73
2022/10/11 09:33:35;;;;;;;16.90;2.60;;;;;;;;;;4382041;32;20027;-72
2022/10/11 09:36:04;;;;;;;14.50;3.15;;;;;;;;;;4391191;32;20054;-73
2022/10/11 09:38:39;;;;;;;16.60;4.40;;;;;;;;;;4391864;32;20151;-73
2022/10/11 09:41:24;;;;;;;14.65;3.37;;;;;;;;;;4392698;32;20041;-73
2022/10/11 09:43:50;;;;;;;15.40;3.87;;;;;;;;;;4392450;32;20038;-73
2022/10/11 09:46:36;;;;;;;13.15;3.20;;;;;;;;;;4392212;32;20084;-74
2022/10/11 09:49:02;;;;;;;14.07;3.47;;;;;;;;;;4392067;32;20102;-74
2022/10/11 09:51:28;;;;;;;11.15;3.22;;;;;;;;;;4392137;32;20023;-74
2022/10/11 09:53:57;;;;;;;15.18;3.25;;;;;;;;;;4392462;32;20188;-74
2022/10/11 09:56:24;;;;;;;11.02;3.12;;;;;;;;;;4393270;32;20065;-73
2022/10/11 09:59:05;;;;;;;11.95;2.78;;;;;;;;;;4392293;32;20053;-73
2022/10/11 10:01:33;;;;;;;22.15;4.37;;;;;;;;;;4391919;32;20102;-74
2022/10/11 10:04:04;;;;;;;11.57;2.42;;;;;;;;;;4391264;32;20038;-73
2022/10/11 10:06:29;;;;;;;13.57;3.08;;;;;;;;;;4391772;32;20031;-74
2022/10/11 10:09:14;;;;;;;12.40;2.70;;;;;;;;;;4385064;32;20061;-74
2022/10/11 10:11:40;;;;;;;14.25;2.85;;;;;;;;;;4376960;32;20019;-74
2022/10/11 10:14:17;;;;;;;12.43;2.53;;;;;;;;;;4376824;32;20064;-74
2022/10/11 10:16:42;;;;;;;15.68;3.15;;;;;;;;;;4377529;32;20326;-73
2022/10/11 10:19:18;;;;;;;17.98;3.47;;;;;;;;;;4376714;32;20050;-73
2022/10/11 10:21:47;;;;;;;11.70;2.53;;;;;;;;;;4376668;32;20065;-73
2022/10/11 10:24:21;;;;;;;13.93;2.47;;;;;;;;;;4376707;32;20100;-75
2022/10/11 10:27:11;;;;;;;12.15;3.28;;;;;;;;;;4376818;32;20052;-74
2022/10/11 10:29:36;;;;;;;13.85;3.12;;;;;;;;;;4376303;32;20409;-74
2022/10/11 10:32:54;;;;;;;11.77;2.22;;;;;;;;;;4376676;32;20046;-74
2022/10/11 10:35:35;;;;;;;11.30;2.25;;;;;;;;;;4376357;32;20043;-74
2022/10/11 10:38:09;;;;;;;10.70;2.22;;;;;;;;;;4377141;32;20101;-74
2022/10/11 10:40:47;;;;;;;15.60;2.85;;;;;;;;;;4375902;32;20088;-74
2022/10/11 10:43:15;;;;;;;8.48;2.15;;;;;;;;;;4376152;32;20030;-73
2022/10/11 10:45:59;;;;;;;12.55;2.55;;;;;;;;;;4376135;32;20124;-75
2022/10/11 10:48:34;;;;;;;13.32;2.70;;;;;;;;;;4377198;32;20057;-75
2022/10/11 10:51:22;;;;;;;9.82;2.65;;;;;;;;;;4376745;32;20041;-75
2022/10/11 10:54:08;;;;;;;10.43;2.70;;;;;;;;;;4375007;32;20052;-74
2022/10/11 10:56:43;;;;;;;9.50;2.28;;;;;;;;;;4375885;32;20046;-74
2022/10/11 10:59:38;;;;;;;9.57;2.65;;;;;;;;;;4376559;32;20031;-75
2022/10/11 11:02:09;;;;;;;9.30;3.03;;;;;;;;;;4376254;32;20056;-74
2022/10/11 11:04:35;;;;;;;7.62;2.35;;;;;;;;;;4376483;32;20105;-74
2022/10/11 11:07:23;;;;;;;9.98;2.50;;;;;;;;;;4376853;32;20128;-74
2022/10/11 11:09:57;;;;;;;9.70;2.78;;;;;;;;;;4387384;32;20023;-74
2022/10/11 11:12:34;;;;;;;12.93;2.25;;;;;;;;;;4391013;32;20052;-74
2022/10/11 11:15:02;;;;;;;116.82;13.68;;;;;;;;;;4389519;32;20383;-73
2022/10/11 11:17:27;;;;;;;66.55;9.10;;;;;;;;;;4390998;32;20031;-73
2022/10/11 11:20:03;;;;;;;21.95;4.22;;;;;;;;;;4390965;32;20099;-74
2022/10/11 11:22:37;;;;;;;49.55;6.87;;;;;;;;;;4391460;32;20087;-73
2022/10/11 11:25:18;;;;;;;10.30;2.47;;;;;;;;;;4392382;32;20057;-73
2022/10/11 11:28:13;;;;;;;12.98;2.85;;;;;;;;;;4391228;32;20027;-74
2022/10/11 11:31:12;;;;;;;13.73;2.95;;;;;;;;;;4388991;32;20061;-75
2022/10/11 11:33:37;;;;;;;9.88;3.00;;;;;;;;;;4390971;32;20114;-73
2022/10/11 11:36:10;;;;;;;12.00;3.17;;;;;;;;;;4389397;32;20306;-74
2022/10/11 11:38:45;;;;;;;12.52;3.08;;;;;;;;;;4390265;32;20122;-74
2022/10/11 11:41:20;;;;;;;9.43;2.75;;;;;;;;;;4391433;32;20015;-74
2022/10/11 11:43:48;;;;;;;33.75;4.53;;;;;;;;;;4390289;32;20066;-74
2022/10/11 11:46:22;;;;;;;12.80;3.12;;;;;;;;;;4391806;32;20049;-74
2022/10/11 11:48:50;;;;;;;10.85;2.87;;;;;;;;;;4390432;32;20043;-75
2022/10/11 11:51:18;;;;;;;11.90;2.75;;;;;;;;;;4391199;32;20047;-73
2022/10/11 11:54:08;;;;;;;7.93;2.58;;;;;;;;;;4390842;32;20419;-73
2022/10/11 11:56:47;;;;;;;11.07;2.78;;;;;;;;;;4390138;32;20014;-73
2022/10/11 11:59:22;;;;;;;13.10;2.55;;;;;;;;;;4390891;32;20023;-73
2022/10/11 12:02:00;;;;;;;50.15;8.32;;;;;;;;;;4390276;32;20026;-73
2022/10/11 12:04:30;;;;;;;63.67;9.85;;;;;;;;;;4389153;32;20484;-73
2022/10/11 12:07:01;;;;;;;18.87;4.35;;;;;;;;;;4390891;32;20053;-73
2022/10/11 12:09:26;;;;;;;10.65;3.30;;;;;;;;;;4386351;32;20038;-72
2022/10/11 12:11:52;;;;;;;14.87;4.28;;;;;;;;;;4375881;32;20125;-73
2022/10/11 12:14:47;;;;;;;;;;;;;;;;;;;;;
2022/10/11 12:17:16;;;;;;;14.75;3.60;;;;;;;;;;4375059;32;20035;-75
2022/10/11 12:20:01;;;;;;;59.30;9.18;;;;;;;;;;4375337;32;20061;-71
2022/10/11 12:22:26;;;;;;;12.68;2.67;;;;;;;;;;4376010;32;20058;-74
2022/10/11 12:24:52;;;;;;;10.15;2.72;;;;;;;;;;4374680;32;20027;-75
2022/10/11 12:27:36;;;;;;;11.98;2.83;;;;;;;;;;4375317;32;20061;-74
2022/10/11 12:30:02;;;;;;;8.63;2.40;;;;;;;;;;4375211;32;20082;-74
2022/10/11 12:32:34;;;;;;;11.07;3.05;;;;;;;;;;4374713;32;20106;-74
2022/10/11 12:35:18;;;;;;;12.05;2.60;;;;;;;;;;4375709;32;20442;-74
2022/10/11 12:37:53;;;;;;;11.50;2.80;;;;;;;;;;4374481;32;20027;-74
2022/10/11 12:40:34;;;;;;;11.83;2.43;;;;;;;;;;4375106;32;20057;-73
2022/10/11 12:43:11;;;;;;;8.80;2.62;;;;;;;;;;4374844;32;20405;-73
2022/10/11 12:45:36;;;;;;;8.90;2.45;;;;;;;;;;4375231;32;20035;-74
2022/10/11 12:48:02;;;;;;;12.90;3.60;;;;;;;;;;4374998;32;20061;-74
2022/10/11 12:50:38;;;;;;;14.23;3.90;;;;;;;;;;4375081;32;20033;-74
2022/10/11 12:53:21;;;;;;;16.42;3.62;;;;;;;;;;4375727;32;20031;-74
2022/10/11 12:56:11;;;;;;;10.88;3.00;;;;;;;;;;4376627;32;20027;-74
2022/10/11 12:58:40;;;;;;;13.65;3.55;;;;;;;;;;4376794;32;20023;-75
2022/10/11 13:01:07;;;;;;;14.30;3.90;;;;;;;;;;4392396;32;20069;-75
2022/10/11 13:03:34;;;;;;;7.47;2.72;;;;;;;;;;4392506;32;20352;-74
2022/10/11 13:06:10;;;;;;;11.23;3.40;;;;;;;;;;4393019;32;20023;-74
2022/10/11 13:08:36;;;;;;;13.27;3.15;;;;;;;;;;4392078;32;20133;-74
2022/10/11 13:11:07;;;;;;;16.98;3.33;;;;;;;;;;4391960;32;20031;-75
2022/10/11 13:13:48;;;;;;;9.55;2.87;;;;;;;;;;4392659;32;20052;-74
2022/10/11 13:16:15;;;;;;;12.57;3.22;;;;;;;;;;4392865;32;20102;-74
2022/10/11 13:18:45;;;;;;;12.25;3.08;;;;;;;;;;4393082;32;20063;-74
2022/10/11 13:21:18;;;;;;;8.70;2.92;;;;;;;;;;4393344;32;20031;-74
2022/10/11 13:23:45;;;;;;;11.35;3.53;;;;;;;;;;4392690;32;20375;-74
2022/10/11 13:26:11;;;;;;;10.55;2.90;;;;;;;;;;4392568;32;20185;-74
2022/10/11 13:28:37;;;;;;;13.70;3.20;;;;;;;;;;4392629;32;20057;-74
2022/10/11 13:31:07;;;;;;;11.50;3.08;;;;;;;;;;4392415;32;20031;-74
2022/10/11 13:33:37;;;;;;;14.13;3.42;;;;;;;;;;4392471;32;20019;-74
2022/10/11 13:36:07;;;;;;;11.73;3.37;;;;;;;;;;4390838;32;20026;-74
2022/10/11 13:38:37;;;;;;;14.48;3.53;;;;;;;;;;4385705;32;20031;-74
2022/10/11 13:41:04;;;;;;;10.25;3.30;;;;;;;;;;4377569;32;20054;-74
2022/10/11 13:43:33;;;;;;;11.55;3.47;;;;;;;;;;4378049;32;20325;-74
2022/10/11 13:49:03;;;;;;;13.18;3.65;;;;;;;;;;4377319;32;20468;-73
2022/10/11 13:51:42;;;;;;;11.20;3.12;;;;;;;;;;4377930;32;20122;-74
2022/10/11 13:54:09;;;;;;;10.70;3.20;;;;;;;;;;4377251;32;20019;-74
2022/10/11 13:56:45;;;;;;;12.15;2.87;;;;;;;;;;4378229;32;20032;-74
2022/10/11 13:59:16;;;;;;;10.73;3.25;;;;;;;;;;4377918;32;20058;-74
2022/10/11 14:01:43;;;;;;;13.57;3.92;;;;;;;;;;4378177;32;20173;-75
2022/10/11 14:04:10;;;;;;;16.58;4.00;;;;;;;;;;4375514;32;20049;-74
2022/10/11 14:06:41;;;;;;;19.40;5.60;;;;;;;;;;4376891;32;20411;-74
2022/10/11 14:09:13;;;;;;;14.23;4.00;;;;;;;;;;4385325;32;20069;-74
2022/10/11 14:11:38;;;;;;;13.93;2.92;;;;;;;;;;4392080;32;20049;-74
2022/10/11 14:14:29;;;;;;;9.57;2.78;;;;;;;;;;4392400;32;20023;-74
2022/10/11 14:17:04;;;;;;;16.45;3.97;;;;;;;;;;4391828;32;20027;-74
2022/10/11 14:19:43;;;;;;;11.57;2.83;;;;;;;;;;4392379;32;20019;-74
2022/10/11 14:22:15;;;;;;;10.00;3.37;;;;;;;;;;4391847;32;20027;-74
2022/10/11 14:24:50;;;;;;;11.02;3.62;;;;;;;;;;4391714;32;20138;-74
2022/10/11 14:27:18;;;;;;;14.35;3.60;;;;;;;;;;4392052;32;20022;-74
2022/10/11 14:29:44;;;;;;;15.07;3.87;;;;;;;;;;4390059;32;20072;-75
2022/10/11 14:32:16;;;;;;;14.52;3.05;;;;;;;;;;4391605;32;20026;-75
2022/10/11 14:34:44;;;;;;;10.68;3.75;;;;;;;;;;4391481;32;20056;-74
2022/10/11 14:37:11;;;;;;;14.82;2.95;;;;;;;;;;4391059;32;20053;-75
2022/10/11 14:39:37;;;;;;;17.00;3.60;;;;;;;;;;4378203;32;20047;-75
2022/10/11 14:42:03;;;;;;;9.73;3.80;;;;;;;;;;4376306;32;20031;-75
2022/10/11 14:44:28;;;;;;;16.23;4.10;;;;;;;;;;4376332;32;20443;-75
2022/10/11 14:46:54;;;;;;;9.35;3.42;;;;;;;;;;4376364;32;20035;-75
2022/10/11 14:49:23;;;;;;;12.68;3.28;;;;;;;;;;4375973;32;20050;-75
2022/10/11 14:51:49;;;;;;;16.10;3.08;;;;;;;;;;4376583;32;20027;-75
2022/10/11 14:54:17;;;;;;;8.23;2.25;;;;;;;;;;4375826;32;20057;-74
2022/10/11 14:56:43;;;;;;;10.15;2.83;;;;;;;;;;4375973;32;20089;-74
2022/10/11 14:59:21;;;;;;;;;;;;;;;;;;;;;
2022/10/11 15:01:50;;;;;;;8.32;2.55;;;;;;;;;;4375976;32;20039;-74
2022/10/11 15:04:23;;;;;;;14.75;3.30;;;;;;;;;;4376128;32;20098;-74
2022/10/11 15:06:49;;;;;;;15.55;3.22;;;;;;;;;;4375926;32;20023;-74
2022/10/11 15:09:16;;;;;;;22.17;3.90;;;;;;;;;;4387604;32;20043;-74
2022/10/11 15:11:41;;;;;;;15.55;3.47;;;;;;;;;;4389780;32;20128;-73
2022/10/11 15:14:07;;;;;;;17.00;4.32;;;;;;;;;;4390100;32;20420;-75
2022/10/11 15:16:32;;;;;;;10.50;3.65;;;;;;;;;;4390586;32;20031;-73
2022/10/11 15:18:57;;;;;;;14.13;3.47;;;;;;;;;;4390878;32;20451;-73
2022/10/11 15:21:24;;;;;;;11.00;2.78;;;;;;;;;;4391168;32;20026;-74
2022/10/11 15:23:50;;;;;;;12.88;3.33;;;;;;;;;;4390538;32;20068;-74
2022/10/11 15:26:20;;;;;;;11.88;2.85;;;;;;;;;;4390818;32;20389;-75